createdAt,value
2018-06-16T00:01:59.636Z,96287.00
2018-06-16T00:04:35.539Z,96288.00
2018-06-16T00:10:27.230Z,96287.00
2018-06-16T00:12:57.793Z,96276.00
2018-06-16T00:15:27.880Z,96281.00
2018-06-16T00:18:17.526Z,96276.00
2018-06-16T00:21:10.291Z,96268.00
2018-06-16T00:23:40.638Z,96262.00
2018-06-16T00:26:12.594Z,96269.00
2018-06-16T00:28:42.688Z,96267.00
2018-06-16T00:31:12.804Z,96269.00
2018-06-16T00:33:44.733Z,96260.00
2018-06-16T00:36:43.360Z,96269.00
2018-06-16T00:39:13.460Z,96261.00
2018-06-16T00:41:43.528Z,96257.00
2018-06-16T00:44:14.473Z,96260.00
2018-06-16T00:46:44.557Z,96256.00
2018-06-16T00:49:14.671Z,96252.00
2018-06-16T00:51:44.797Z,96251.00
2018-06-16T00:54:14.940Z,96258.00
2018-06-16T00:56:50.898Z,96251.00
2018-06-16T00:59:21.363Z,96244.00
2018-06-16T01:01:52.172Z,96246.00
2018-06-16T01:04:22.288Z,96242.00
2018-06-16T01:06:54.642Z,96238.00
2018-06-16T01:09:24.759Z,96230.00
2018-06-16T01:11:54.863Z,96223.00
2018-06-16T01:14:24.963Z,96223.00
2018-06-16T01:16:55.040Z,96212.00
2018-06-16T01:19:25.117Z,96230.00
2018-06-16T01:21:55.210Z,96232.00
2018-06-16T01:24:25.299Z,96232.00
2018-06-16T01:26:55.412Z,96229.00
2018-06-16T01:29:25.604Z,96219.00
2018-06-16T01:31:55.728Z,96219.00
2018-06-16T01:34:28.898Z,96216.00
2018-06-16T01:37:11.117Z,96220.00
2018-06-16T01:39:43.142Z,96219.00
2018-06-16T01:42:16.097Z,96217.00
2018-06-16T01:46:49.457Z,96206.00
2018-06-16T01:50:44.549Z,96204.00
2018-06-16T01:53:15.605Z,96209.00
2018-06-16T01:55:45.756Z,96203.00
2018-06-16T01:58:15.864Z,96206.00
2018-06-16T02:00:48.533Z,96196.00
2018-06-16T02:03:18.326Z,96199.00
2018-06-16T02:05:48.361Z,96200.00
2018-06-16T02:08:18.477Z,96196.00
2018-06-16T02:10:48.670Z,96195.00
2018-06-16T02:13:18.772Z,96198.00
2018-06-16T02:15:48.878Z,96194.00
2018-06-16T02:18:19.293Z,96191.00
2018-06-16T02:20:49.378Z,96192.00
2018-06-16T02:23:19.458Z,96188.00
2018-06-16T02:25:50.661Z,96180.00
2018-06-16T02:29:20.453Z,96198.00
2018-06-16T02:32:42.245Z,96195.00
2018-06-16T02:35:12.444Z,96203.00
2018-06-16T02:37:42.989Z,96196.00
2018-06-16T02:40:42.189Z,96198.00
2018-06-16T02:43:55.435Z,96187.00
2018-06-16T02:46:29.269Z,96205.00
2018-06-16T02:49:16.516Z,96200.00
2018-06-16T02:52:14.098Z,96202.00
2018-06-16T02:54:44.195Z,96197.00
2018-06-16T02:57:14.313Z,96207.00
2018-06-16T03:00:53.508Z,96199.00
2018-06-16T03:03:23.780Z,96208.00
2018-06-16T03:05:53.985Z,96210.00
2018-06-16T03:08:24.076Z,96213.00
2018-06-16T03:10:54.158Z,96208.00
2018-06-16T03:13:24.266Z,96210.00
2018-06-16T03:15:56.042Z,96203.00
2018-06-16T03:18:43.731Z,96201.00
2018-06-16T03:21:14.628Z,96201.00
2018-06-16T03:23:44.707Z,96201.00
2018-06-16T03:26:16.227Z,96209.00
2018-06-16T03:28:47.066Z,96213.00
2018-06-16T03:31:33.933Z,96214.00
2018-06-16T03:38:51.242Z,96210.00
2018-06-16T03:41:21.693Z,96210.00
2018-06-16T03:52:37.349Z,96215.00
2018-06-16T04:04:22.730Z,96221.00
2018-06-16T04:06:53.972Z,96221.00
2018-06-16T04:12:32.058Z,96246.00
2018-06-16T04:15:04.656Z,96232.00
2018-06-16T04:21:43.885Z,96247.00
2018-06-16T04:24:14.652Z,96235.00
2018-06-16T04:26:45.896Z,96247.00
2018-06-16T04:29:17.481Z,96242.00
2018-06-16T04:31:48.418Z,96241.00
2018-06-16T04:34:20.190Z,96248.00
2018-06-16T04:36:52.041Z,96241.00
2018-06-16T04:39:33.446Z,96243.00
2018-06-16T04:42:06.972Z,96252.00
2018-06-16T04:44:46.306Z,96250.00
2018-06-16T04:47:18.552Z,96252.00
2018-06-16T04:49:53.071Z,96261.00
2018-06-16T04:52:26.634Z,96254.00
2018-06-16T04:55:00.425Z,96261.00
2018-06-16T04:57:32.219Z,96264.00
2018-06-16T05:00:14.700Z,96265.00
2018-06-16T05:02:50.689Z,96261.00
2018-06-16T05:05:21.786Z,96272.00
2018-06-16T05:07:53.253Z,96271.00
2018-06-16T05:10:27.976Z,96264.00
2018-06-16T05:13:21.853Z,96261.00
2018-06-16T05:15:54.025Z,96279.00
2018-06-16T05:18:26.809Z,96279.00
2018-06-16T05:21:27.425Z,96277.00
2018-06-16T05:24:29.105Z,96276.00
2018-06-16T05:27:01.394Z,96277.00
2018-06-16T05:29:31.503Z,96275.00
2018-06-16T05:32:01.602Z,96280.00
2018-06-16T05:34:31.721Z,96283.00
2018-06-16T05:37:01.871Z,96279.00
2018-06-16T05:39:31.993Z,96285.00
2018-06-16T05:42:02.081Z,96285.00
2018-06-16T05:44:32.172Z,96283.00
2018-06-16T05:47:02.278Z,96278.00
2018-06-16T05:49:32.345Z,96282.00
2018-06-16T05:52:02.450Z,96285.00
2018-06-16T05:54:32.555Z,96285.00
2018-06-16T05:57:02.652Z,96283.00
2018-06-16T05:59:32.748Z,96289.00
2018-06-16T06:02:02.831Z,96277.00
2018-06-16T06:04:33.080Z,96279.00
2018-06-16T06:07:03.180Z,96280.00
2018-06-16T06:09:33.270Z,96287.00
2018-06-16T06:12:03.436Z,96277.00
2018-06-16T06:14:33.612Z,96283.00
2018-06-16T06:17:03.715Z,96286.00
2018-06-16T06:19:33.806Z,96295.00
2018-06-16T06:22:03.968Z,96293.00
2018-06-16T06:24:34.045Z,96291.00
2018-06-16T06:27:04.133Z,96300.00
2018-06-16T06:29:34.209Z,96291.00
2018-06-16T06:32:04.354Z,96291.00
2018-06-16T06:34:34.368Z,96297.00
2018-06-16T06:37:04.463Z,96295.00
2018-06-16T06:39:34.530Z,96298.00
2018-06-16T06:42:04.599Z,96304.00
2018-06-16T06:44:34.719Z,96298.00
2018-06-16T06:47:04.880Z,96294.00
2018-06-16T06:49:34.980Z,96294.00
2018-06-16T06:52:05.092Z,96300.00
2018-06-16T06:54:35.181Z,96303.00
2018-06-16T06:57:05.332Z,96307.00
2018-06-16T06:59:35.453Z,96298.00
2018-06-16T07:02:05.648Z,96299.00
2018-06-16T07:04:35.764Z,96293.00
2018-06-16T07:07:05.930Z,96293.00
2018-06-16T07:09:36.058Z,96299.00
2018-06-16T07:12:06.236Z,96299.00
2018-06-16T07:14:36.099Z,96300.00
2018-06-16T07:17:06.120Z,96301.00
2018-06-16T07:19:36.203Z,96306.00
2018-06-16T07:22:06.313Z,96299.00
2018-06-16T07:24:36.393Z,96302.00
2018-06-16T07:27:06.574Z,96297.00
2018-06-16T07:29:36.632Z,96292.00
2018-06-16T07:32:06.817Z,96291.00
2018-06-16T07:34:36.898Z,96287.00
2018-06-16T07:37:07.018Z,96294.00
2018-06-16T07:39:37.218Z,96281.00
2018-06-16T07:42:07.333Z,96294.00
2018-06-16T07:44:37.408Z,96286.00
2018-06-16T07:47:07.540Z,96292.00
2018-06-16T07:49:37.718Z,96284.00
2018-06-16T07:52:07.818Z,96288.00
2018-06-16T07:54:37.877Z,96292.00
2018-06-16T07:57:08.088Z,96292.00
2018-06-16T07:59:38.217Z,96297.00
2018-06-16T08:02:08.330Z,96289.00
2018-06-16T08:04:38.509Z,96294.00
2018-06-16T08:07:08.356Z,96290.00
2018-06-16T08:09:38.404Z,96283.00
2018-06-16T08:12:08.519Z,96281.00
2018-06-16T08:14:38.681Z,96279.00
2018-06-16T08:17:08.762Z,96285.00
2018-06-16T08:19:38.905Z,96285.00
2018-06-16T08:22:09.001Z,96279.00
2018-06-16T08:24:39.215Z,96290.00
2018-06-16T08:27:09.211Z,96275.00
2018-06-16T08:29:39.490Z,96283.00
2018-06-16T08:32:09.599Z,96279.00
2018-06-16T08:34:39.725Z,96276.00
2018-06-16T08:37:10.648Z,96280.00
2018-06-16T08:39:40.880Z,96280.00
2018-06-16T08:42:10.983Z,96276.00
2018-06-16T08:44:41.141Z,96277.00
2018-06-16T08:47:11.312Z,96270.00
2018-06-16T08:49:41.466Z,96285.00
2018-06-16T08:52:11.532Z,96288.00
2018-06-16T08:54:41.681Z,96288.00
2018-06-16T08:57:11.760Z,96278.00
2018-06-16T08:59:41.900Z,96274.00
2018-06-16T09:02:11.670Z,96270.00
2018-06-16T09:04:41.756Z,96278.00
2018-06-16T09:07:11.827Z,96284.00
2018-06-16T09:09:42.029Z,96285.00
2018-06-16T09:12:12.164Z,96281.00
2018-06-16T09:14:42.283Z,96283.00
2018-06-16T09:17:12.448Z,96280.00
2018-06-16T09:19:42.618Z,96275.00
2018-06-16T09:22:12.775Z,96277.00
2018-06-16T09:24:43.080Z,96275.00
2018-06-16T09:27:13.169Z,96275.00
2018-06-16T09:29:43.505Z,96275.00
2018-06-16T09:32:13.768Z,96287.00
2018-06-16T09:34:43.866Z,96275.00
2018-06-16T09:37:13.984Z,96279.00
2018-06-16T09:39:44.057Z,96279.00
2018-06-16T09:42:14.213Z,96273.00
2018-06-16T09:44:44.302Z,96277.00
2018-06-16T09:47:14.349Z,96274.00
2018-06-16T09:49:44.504Z,96284.00
2018-06-16T09:52:14.545Z,96281.00
2018-06-16T09:54:44.809Z,96278.00
2018-06-16T09:57:14.852Z,96266.00
2018-06-16T09:59:45.028Z,96264.00
2018-06-16T10:02:15.076Z,96271.00
2018-06-16T10:04:45.185Z,96260.00
2018-06-16T10:07:15.268Z,96260.00
2018-06-16T10:09:45.329Z,96262.00
2018-06-16T10:12:15.386Z,96267.00
2018-06-16T10:14:45.431Z,96261.00
2018-06-16T10:17:15.573Z,96259.00
2018-06-16T10:19:45.691Z,96257.00
2018-06-16T10:22:15.760Z,96270.00
2018-06-16T10:24:45.801Z,96260.00
2018-06-16T10:27:15.880Z,96262.00
2018-06-16T10:29:46.025Z,96262.00
2018-06-16T10:32:16.124Z,96261.00
2018-06-16T10:34:46.253Z,96259.00
2018-06-16T10:37:16.333Z,96275.00
2018-06-16T10:39:47.415Z,96270.00
2018-06-16T10:42:17.182Z,96272.00
2018-06-16T10:44:47.136Z,96273.00
2018-06-16T10:47:17.212Z,96271.00
2018-06-16T10:49:47.343Z,96269.00
2018-06-16T10:52:17.552Z,96277.00
2018-06-16T10:54:47.732Z,96279.00
2018-06-16T10:57:18.288Z,96273.00
2018-06-16T10:59:48.344Z,96278.00
2018-06-16T11:02:18.413Z,96271.00
2018-06-16T11:04:48.563Z,96282.00
2018-06-16T11:07:18.668Z,96273.00
2018-06-16T11:09:48.815Z,96270.00
2018-06-16T11:12:18.976Z,96260.00
2018-06-16T11:14:49.031Z,96267.00
2018-06-16T11:17:19.159Z,96266.00
2018-06-16T11:19:49.219Z,96266.00
2018-06-16T11:22:19.447Z,96263.00
2018-06-16T11:24:49.507Z,96262.00
2018-06-16T11:27:19.604Z,96259.00
2018-06-16T11:29:49.676Z,96256.00
2018-06-16T11:32:19.827Z,96260.00
2018-06-16T11:34:49.908Z,96256.00
2018-06-16T11:37:20.144Z,96253.00
2018-06-16T11:39:50.232Z,96261.00
2018-06-16T11:42:20.424Z,96255.00
2018-06-16T11:44:50.724Z,96254.00
2018-06-16T11:47:20.802Z,96259.00
2018-06-16T11:49:50.935Z,96254.00
2018-06-16T11:52:21.034Z,96256.00
2018-06-16T11:54:51.124Z,96260.00
2018-06-16T11:57:21.221Z,96252.00
2018-06-16T11:59:51.320Z,96250.00
2018-06-16T12:02:21.391Z,96257.00
2018-06-16T12:04:51.439Z,96256.00
2018-06-16T12:07:21.528Z,96243.00
2018-06-16T12:09:51.632Z,96255.00
2018-06-16T12:12:21.751Z,96251.00
2018-06-16T12:14:51.812Z,96252.00
2018-06-16T12:17:21.888Z,96251.00
2018-06-16T12:19:51.965Z,96256.00
2018-06-16T12:22:22.051Z,96260.00
2018-06-16T12:24:52.096Z,96259.00
2018-06-16T12:27:22.179Z,96255.00
2018-06-16T12:29:52.257Z,96255.00
2018-06-16T12:32:22.360Z,96259.00
2018-06-16T12:34:52.421Z,96255.00
2018-06-16T12:37:22.487Z,96261.00
2018-06-16T12:39:52.672Z,96266.00
2018-06-16T12:42:23.108Z,96265.00
2018-06-16T12:44:53.188Z,96270.00
2018-06-16T12:47:23.283Z,96272.00
2018-06-16T12:49:53.419Z,96276.00
2018-06-16T12:52:23.491Z,96281.00
2018-06-16T12:54:53.919Z,96285.00
2018-06-16T12:57:24.107Z,96278.00
2018-06-16T12:59:54.169Z,96280.00
2018-06-16T13:02:24.235Z,96289.00
2018-06-16T13:04:54.296Z,96297.00
2018-06-16T13:07:24.391Z,96293.00
2018-06-16T13:09:54.480Z,96295.00
2018-06-16T13:12:24.740Z,96295.00
2018-06-16T13:14:54.841Z,96289.00
2018-06-16T13:17:24.896Z,96298.00
2018-06-16T13:19:54.983Z,96304.00
2018-06-16T13:22:25.276Z,96305.00
2018-06-16T13:24:55.359Z,96301.00
2018-06-16T13:27:25.436Z,96310.00
2018-06-16T13:29:55.595Z,96300.00
2018-06-16T13:32:25.773Z,96304.00
2018-06-16T13:34:55.939Z,96295.00
2018-06-16T13:37:26.135Z,96299.00
2018-06-16T13:39:56.269Z,96300.00
2018-06-16T13:42:26.336Z,96301.00
2018-06-16T13:44:56.429Z,96303.00
2018-06-16T13:47:26.516Z,96307.00
2018-06-16T13:49:56.781Z,96308.00
2018-06-16T13:52:26.868Z,96302.00
2018-06-16T13:54:56.973Z,96308.00
2018-06-16T13:57:27.254Z,96309.00
2018-06-16T13:59:57.336Z,96309.00
2018-06-16T14:02:27.427Z,96306.00
2018-06-16T14:04:57.500Z,96306.00
2018-06-16T14:07:27.584Z,96298.00
2018-06-16T14:09:57.688Z,96308.00
2018-06-16T14:12:27.759Z,96300.00
2018-06-16T14:14:57.889Z,96306.00
2018-06-16T14:17:27.940Z,96304.00
2018-06-16T14:19:58.148Z,96303.00
2018-06-16T14:22:28.336Z,96296.00
2018-06-16T14:24:58.404Z,96306.00
2018-06-16T14:27:28.480Z,96300.00
2018-06-16T14:29:58.599Z,96292.00
2018-06-16T14:32:28.733Z,96290.00
2018-06-16T14:34:58.811Z,96289.00
2018-06-16T14:37:28.869Z,96291.00
2018-06-16T14:39:58.940Z,96286.00
2018-06-16T14:42:29.113Z,96284.00
2018-06-16T14:44:59.193Z,96290.00
2018-06-16T14:47:29.252Z,96286.00
2018-06-16T14:49:59.307Z,96286.00
2018-06-16T14:52:29.373Z,96280.00
2018-06-16T14:54:59.440Z,96277.00
2018-06-16T14:57:29.526Z,96282.00
2018-06-16T14:59:59.641Z,96278.00
2018-06-16T15:02:29.696Z,96281.00
2018-06-16T15:04:59.811Z,96276.00
2018-06-16T15:07:29.844Z,96290.00
2018-06-16T15:09:59.912Z,96275.00
2018-06-16T15:12:30.001Z,96273.00
2018-06-16T15:15:00.118Z,96271.00
2018-06-16T15:17:30.324Z,96265.00
2018-06-16T15:20:00.592Z,96264.00
2018-06-16T15:22:30.647Z,96267.00
2018-06-16T15:25:00.713Z,96268.00
2018-06-16T15:27:30.836Z,96260.00
2018-06-16T15:30:00.904Z,96261.00
2018-06-16T15:32:30.972Z,96261.00
2018-06-16T15:35:01.135Z,96259.00
2018-06-16T15:37:31.191Z,96258.00
2018-06-16T15:40:01.276Z,96255.00
2018-06-16T15:42:31.411Z,96257.00
2018-06-16T15:45:01.504Z,96244.00
2018-06-16T15:47:31.564Z,96244.00
2018-06-16T15:50:02.636Z,96246.00
2018-06-16T15:52:32.715Z,96249.00
2018-06-16T15:55:02.816Z,96243.00
2018-06-16T15:57:32.930Z,96242.00
2018-06-16T16:00:03.266Z,96233.00
2018-06-16T16:02:33.357Z,96227.00
2018-06-16T16:05:03.477Z,96231.00
2018-06-16T16:07:33.636Z,96234.00
2018-06-16T16:10:03.817Z,96233.00
2018-06-16T16:12:33.870Z,96233.00
2018-06-16T16:15:04.065Z,96237.00
2018-06-16T16:17:34.139Z,96239.00
2018-06-16T16:20:04.330Z,96236.00
2018-06-16T16:22:34.364Z,96238.00
2018-06-16T16:25:04.588Z,96231.00
2018-06-16T16:27:34.757Z,96231.00
2018-06-16T16:30:04.964Z,96227.00
2018-06-16T16:32:35.035Z,96221.00
2018-06-16T16:35:05.163Z,96218.00
2018-06-16T16:37:35.412Z,96230.00
2018-06-16T16:40:05.809Z,96223.00
2018-06-16T16:42:35.857Z,96232.00
2018-06-16T16:45:06.745Z,96229.00
2018-06-16T16:47:36.938Z,96238.00
2018-06-16T16:50:07.060Z,96233.00
2018-06-16T16:52:37.126Z,96230.00
2018-06-16T16:55:07.208Z,96232.00
2018-06-16T16:57:37.324Z,96231.00
2018-06-16T17:00:07.584Z,96233.00
2018-06-16T17:02:37.708Z,96227.00
2018-06-16T17:05:08.014Z,96228.00
2018-06-16T17:07:38.191Z,96220.00
2018-06-16T17:10:08.996Z,96222.00
2018-06-16T17:12:39.208Z,96229.00
2018-06-16T17:15:09.302Z,96227.00
2018-06-16T17:17:39.479Z,96227.00
2018-06-16T17:20:09.605Z,96220.00
2018-06-16T17:22:39.703Z,96221.00
2018-06-16T17:25:09.781Z,96218.00
2018-06-16T17:27:39.916Z,96219.00
2018-06-16T17:30:10.020Z,96217.00
2018-06-16T17:32:40.080Z,96216.00
2018-06-16T17:35:10.235Z,96216.00
2018-06-16T17:37:40.312Z,96220.00
2018-06-16T17:40:10.399Z,96214.00
2018-06-16T17:42:40.504Z,96214.00
2018-06-16T17:45:10.752Z,96215.00
2018-06-16T17:47:40.829Z,96217.00
2018-06-16T17:50:11.440Z,96213.00
2018-06-16T17:52:41.507Z,96227.00
2018-06-16T17:55:11.600Z,96223.00
2018-06-16T17:57:41.672Z,96218.00
2018-06-16T18:00:11.899Z,96210.00
2018-06-16T18:02:42.042Z,96219.00
2018-06-16T18:05:12.151Z,96217.00
2018-06-16T18:07:42.372Z,96218.00
2018-06-16T18:10:12.831Z,96208.00
2018-06-16T18:12:43.038Z,96206.00
2018-06-16T18:15:13.124Z,96215.00
2018-06-16T18:17:43.218Z,96217.00
2018-06-16T18:20:13.304Z,96210.00
2018-06-16T18:22:43.379Z,96220.00
2018-06-16T18:25:13.510Z,96215.00
2018-06-16T18:27:43.604Z,96219.00
2018-06-16T18:30:13.728Z,96211.00
2018-06-16T18:32:43.784Z,96220.00
2018-06-16T18:35:14.034Z,96217.00
2018-06-16T18:37:44.160Z,96220.00
2018-06-16T18:40:14.192Z,96217.00
2018-06-16T18:42:44.256Z,96213.00
2018-06-16T18:45:14.363Z,96219.00
2018-06-16T18:47:44.433Z,96217.00
2018-06-16T18:50:14.663Z,96220.00
2018-06-16T18:52:44.756Z,96221.00
2018-06-16T18:55:14.912Z,96219.00
2018-06-16T18:57:45.088Z,96221.00
2018-06-16T19:00:15.164Z,96234.00
2018-06-16T19:02:46.117Z,96239.00
2018-06-16T19:05:16.384Z,96232.00
2018-06-16T19:07:46.568Z,96239.00
2018-06-16T19:10:16.684Z,96243.00
2018-06-16T19:12:46.768Z,96249.00
2018-06-16T19:15:17.083Z,96253.00
2018-06-16T19:17:47.256Z,96262.00
2018-06-16T19:20:17.340Z,96260.00
2018-06-16T19:22:47.483Z,96258.00
2018-06-16T19:25:17.700Z,96270.00
2018-06-16T19:27:47.556Z,96261.00
2018-06-16T19:30:17.550Z,96265.00
2018-06-16T19:32:47.708Z,96271.00
2018-06-16T19:35:17.854Z,96270.00
2018-06-16T19:37:48.435Z,96280.00
2018-06-16T19:40:18.519Z,96280.00
2018-06-16T19:42:48.600Z,96279.00
2018-06-16T19:45:18.756Z,96279.00
2018-06-16T19:47:48.873Z,96281.00
2018-06-16T19:50:19.393Z,96284.00
2018-06-16T19:52:50.038Z,96288.00
2018-06-16T19:55:20.489Z,96288.00
2018-06-16T19:57:56.101Z,96285.00
2018-06-16T20:00:26.389Z,96291.00
2018-06-16T20:02:56.680Z,96293.00
2018-06-16T20:05:27.151Z,96291.00
2018-06-16T20:07:57.386Z,96283.00
2018-06-16T20:10:27.511Z,96286.00
2018-06-16T20:12:57.859Z,96285.00
2018-06-16T20:15:27.925Z,96285.00
2018-06-16T20:17:58.314Z,96286.00
2018-06-16T20:20:28.508Z,96289.00
2018-06-16T20:22:58.712Z,96290.00
2018-06-16T20:25:28.977Z,96295.00
2018-06-16T20:27:59.063Z,96296.00
2018-06-16T20:30:29.240Z,96295.00
2018-06-16T20:32:59.082Z,96293.00
2018-06-16T20:35:29.114Z,96291.00
2018-06-16T20:37:59.185Z,96294.00
2018-06-16T20:40:29.280Z,96290.00
2018-06-16T20:42:59.372Z,96296.00
2018-06-16T20:45:29.455Z,96298.00
2018-06-16T20:47:59.647Z,96299.00
2018-06-16T20:50:29.801Z,96307.00
2018-06-16T20:52:59.670Z,96296.00
2018-06-16T20:55:29.724Z,96292.00
2018-06-16T20:57:59.811Z,96294.00
2018-06-16T21:00:29.597Z,96294.00
2018-06-16T21:02:59.660Z,96301.00
2018-06-16T21:05:29.768Z,96299.00
2018-06-16T21:07:59.839Z,96301.00
2018-06-16T21:10:29.956Z,96299.00
2018-06-16T21:13:00.037Z,96304.00
2018-06-16T21:15:30.188Z,96302.00
2018-06-16T21:18:00.264Z,96302.00
2018-06-16T21:20:30.348Z,96295.00
2018-06-16T21:23:00.520Z,96296.00
2018-06-16T21:25:30.594Z,96295.00
2018-06-16T21:28:00.884Z,96297.00
2018-06-16T21:30:30.961Z,96294.00
2018-06-16T21:33:01.085Z,96293.00
2018-06-16T21:35:31.152Z,96300.00
2018-06-16T21:38:01.268Z,96298.00
2018-06-16T21:40:31.347Z,96298.00
2018-06-16T21:43:05.837Z,96304.00
2018-06-16T21:45:35.925Z,96306.00
2018-06-16T21:48:06.457Z,96304.00
2018-06-16T21:50:36.597Z,96304.00
2018-06-16T21:53:09.881Z,96306.00
2018-06-16T21:55:39.997Z,96319.00
2018-06-16T21:58:10.090Z,96315.00
2018-06-16T22:00:40.260Z,96299.00
2018-06-16T22:03:10.343Z,96307.00
2018-06-16T22:05:40.524Z,96302.00
2018-06-16T22:08:15.849Z,96309.00
2018-06-16T22:10:45.977Z,96299.00
2018-06-16T22:13:16.144Z,96305.00
2018-06-16T22:15:46.294Z,96307.00
2018-06-16T22:18:16.703Z,96298.00
2018-06-16T22:43:15.686Z,96294.00
2018-06-16T22:57:55.745Z,96297.00
2018-06-16T23:00:28.085Z,96291.00
2018-06-16T23:07:59.762Z,96293.00
2018-06-16T23:15:55.535Z,96292.00
2018-06-16T23:18:26.499Z,96281.00
2018-06-16T23:27:21.082Z,96278.00
